sensor_id;sensor_type;location;lat;lon;timestamp;temperature;humidity
26278;DHT22;14000;52.056;8.510;2023-07-29T00:01:11;19.70;99.90
26278;DHT22;14000;52.056;8.510;2023-07-29T00:03:37;19.70;99.90
26278;DHT22;14000;52.056;8.510;2023-07-29T00:06:03;19.80;99.90
26278;DHT22;14000;52.056;8.510;2023-07-29T00:08:28;19.80;99.90
26278;DHT22;14000;52.056;8.510;2023-07-29T00:10:54;19.80;99.90
26278;DHT22;14000;52.056;8.510;2023-07-29T00:13:20;19.70;99.90
26278;DHT22;14000;52.056;8.510;2023-07-29T00:15:45;19.80;99.90
26278;DHT22;14000;52.056;8.510;2023-07-29T00:18:11;19.80;99.90
26278;DHT22;14000;52.056;8.510;2023-07-29T00:20:36;19.70;99.90
26278;DHT22;14000;52.056;8.510;2023-07-29T00:23:02;19.70;99.90
26278;DHT22;14000;52.056;8.510;2023-07-29T00:25:28;19.80;99.90
26278;DHT22;14000;52.056;8.510;2023-07-29T00:27:56;19.80;99.90
26278;DHT22;14000;52.056;8.510;2023-07-29T00:30:22;19.80;99.90
26278;DHT22;14000;52.056;8.510;2023-07-29T00:32:47;19.80;99.90
26278;DHT22;14000;52.056;8.510;2023-07-29T00:35:13;19.70;99.90
26278;DHT22;14000;52.056;8.510;2023-07-29T00:37:38;19.70;99.90
26278;DHT22;14000;52.056;8.510;2023-07-29T00:40:15;19.70;99.90
26278;DHT22;14000;52.056;8.510;2023-07-29T00:42:41;19.70;99.90
26278;DHT22;14000;52.056;8.510;2023-07-29T00:45:09;19.70;99.90
26278;DHT22;14000;52.056;8.510;2023-07-29T00:47:34;19.70;99.90
26278;DHT22;14000;52.056;8.510;2023-07-29T00:50:00;19.70;99.90
26278;DHT22;14000;52.056;8.510;2023-07-29T00:52:26;19.70;99.90
26278;DHT22;14000;52.056;8.510;2023-07-29T00:54:52;19.70;99.90
26278;DHT22;14000;52.056;8.510;2023-07-29T00:57:18;19.70;99.90
26278;DHT22;14000;52.056;8.510;2023-07-29T00:59:44;19.70;99.90
26278;DHT22;14000;52.056;8.510;2023-07-29T01:02:10;19.70;99.90
26278;DHT22;14000;52.056;8.510;2023-07-29T01:04:35;19.70;99.90
26278;DHT22;14000;52.056;8.510;2023-07-29T01:12:57;19.70;99.90
26278;DHT22;14000;52.056;8.510;2023-07-29T01:18:07;19.60;99.90
26278;DHT22;14000;52.056;8.510;2023-07-29T01:20:38;19.60;99.90
26278;DHT22;14000;52.056;8.510;2023-07-29T01:23:04;19.60;99.90
26278;DHT22;14000;52.056;8.510;2023-07-29T01:25:30;19.50;99.90
26278;DHT22;14000;52.056;8.510;2023-07-29T01:27:55;19.50;99.90
26278;DHT22;14000;52.056;8.510;2023-07-29T01:30:28;19.50;99.90
26278;DHT22;14000;52.056;8.510;2023-07-29T01:33:13;19.50;99.90
26278;DHT22;14000;52.056;8.510;2023-07-29T01:35:42;19.50;99.90
26278;DHT22;14000;52.056;8.510;2023-07-29T01:38:14;19.50;99.90
26278;DHT22;14000;52.056;8.510;2023-07-29T01:40:42;19.50;99.90
26278;DHT22;14000;52.056;8.510;2023-07-29T01:43:10;19.50;99.90
26278;DHT22;14000;52.056;8.510;2023-07-29T01:45:35;19.50;99.90
26278;DHT22;14000;52.056;8.510;2023-07-29T01:48:04;19.40;99.90
26278;DHT22;14000;52.056;8.510;2023-07-29T01:50:30;19.40;99.90
26278;DHT22;14000;52.056;8.510;2023-07-29T01:52:57;19.50;99.90
26278;DHT22;14000;52.056;8.510;2023-07-29T01:55:23;19.50;99.90
26278;DHT22;14000;52.056;8.510;2023-07-29T01:57:49;19.50;99.90
26278;DHT22;14000;52.056;8.510;2023-07-29T02:00:16;19.50;99.90
26278;DHT22;14000;52.056;8.510;2023-07-29T02:02:41;19.40;99.90
26278;DHT22;14000;52.056;8.510;2023-07-29T02:05:07;19.40;99.90
26278;DHT22;14000;52.056;8.510;2023-07-29T02:07:32;19.40;99.90
26278;DHT22;14000;52.056;8.510;2023-07-29T02:09:58;19.30;99.90
26278;DHT22;14000;52.056;8.510;2023-07-29T02:12:24;19.30;99.90
26278;DHT22;14000;52.056;8.510;2023-07-29T02:14:49;19.30;99.90
26278;DHT22;14000;52.056;8.510;2023-07-29T02:17:15;19.20;99.90
26278;DHT22;14000;52.056;8.510;2023-07-29T02:19:41;19.20;99.90
26278;DHT22;14000;52.056;8.510;2023-07-29T02:22:06;19.30;99.90
26278;DHT22;14000;52.056;8.510;2023-07-29T02:24:32;19.30;99.90
26278;DHT22;14000;52.056;8.510;2023-07-29T02:26:57;19.20;99.90
26278;DHT22;14000;52.056;8.510;2023-07-29T02:29:23;19.20;99.90
26278;DHT22;14000;52.056;8.510;2023-07-29T02:31:50;19.20;99.90
26278;DHT22;14000;52.056;8.510;2023-07-29T02:34:16;19.20;99.90
26278;DHT22;14000;52.056;8.510;2023-07-29T02:36:41;19.10;99.90
26278;DHT22;14000;52.056;8.510;2023-07-29T02:39:07;19.10;99.90
26278;DHT22;14000;52.056;8.510;2023-07-29T02:41:32;19.00;99.90
26278;DHT22;14000;52.056;8.510;2023-07-29T02:43:58;19.00;99.90
26278;DHT22;14000;52.056;8.510;2023-07-29T02:46:24;19.00;99.90
26278;DHT22;14000;52.056;8.510;2023-07-29T02:48:51;19.00;99.90
26278;DHT22;14000;52.056;8.510;2023-07-29T02:51:16;18.90;99.90
26278;DHT22;14000;52.056;8.510;2023-07-29T02:53:42;19.00;99.90
26278;DHT22;14000;52.056;8.510;2023-07-29T02:56:08;19.00;99.90
26278;DHT22;14000;52.056;8.510;2023-07-29T02:58:36;18.90;99.90
26278;DHT22;14000;52.056;8.510;2023-07-29T03:01:05;18.90;99.90
26278;DHT22;14000;52.056;8.510;2023-07-29T03:03:32;18.90;99.90
26278;DHT22;14000;52.056;8.510;2023-07-29T03:06:06;19.00;99.90
26278;DHT22;14000;52.056;8.510;2023-07-29T03:08:31;18.90;99.90
26278;DHT22;14000;52.056;8.510;2023-07-29T03:10:58;18.90;99.90
26278;DHT22;14000;52.056;8.510;2023-07-29T03:13:24;19.00;99.90
26278;DHT22;14000;52.056;8.510;2023-07-29T03:15:50;19.00;99.90
26278;DHT22;14000;52.056;8.510;2023-07-29T03:18:15;19.10;99.90
26278;DHT22;14000;52.056;8.510;2023-07-29T03:20:41;19.10;99.90
26278;DHT22;14000;52.056;8.510;2023-07-29T03:23:07;19.10;99.90
26278;DHT22;14000;52.056;8.510;2023-07-29T03:25:32;19.10;99.90
26278;DHT22;14000;52.056;8.510;2023-07-29T03:27:58;19.10;99.90
26278;DHT22;14000;52.056;8.510;2023-07-29T03:30:24;19.10;99.90
26278;DHT22;14000;52.056;8.510;2023-07-29T03:32:50;19.10;99.90
26278;DHT22;14000;52.056;8.510;2023-07-29T03:35:16;19.10;99.90
26278;DHT22;14000;52.056;8.510;2023-07-29T03:37:41;19.00;99.90
26278;DHT22;14000;52.056;8.510;2023-07-29T03:40:08;19.00;99.90
26278;DHT22;14000;52.056;8.510;2023-07-29T03:42:35;19.10;99.90
26278;DHT22;14000;52.056;8.510;2023-07-29T03:45:00;19.10;99.90
26278;DHT22;14000;52.056;8.510;2023-07-29T03:47:26;19.20;99.90
26278;DHT22;14000;52.056;8.510;2023-07-29T03:49:52;19.10;99.90
26278;DHT22;14000;52.056;8.510;2023-07-29T03:52:18;19.20;99.90
26278;DHT22;14000;52.056;8.510;2023-07-29T03:54:43;19.20;99.90
26278;DHT22;14000;52.056;8.510;2023-07-29T03:57:09;19.30;99.90
26278;DHT22;14000;52.056;8.510;2023-07-29T03:59:35;19.30;99.90
26278;DHT22;14000;52.056;8.510;2023-07-29T04:02:00;19.30;99.90
26278;DHT22;14000;52.056;8.510;2023-07-29T04:04:26;19.30;99.90
26278;DHT22;14000;52.056;8.510;2023-07-29T04:06:51;19.30;99.90
26278;DHT22;14000;52.056;8.510;2023-07-29T04:09:17;19.30;99.90
26278;DHT22;14000;52.056;8.510;2023-07-29T04:11:43;19.30;99.90
26278;DHT22;14000;52.056;8.510;2023-07-29T04:14:09;19.30;99.90
26278;DHT22;14000;52.056;8.510;2023-07-29T04:16:34;19.30;99.90
26278;DHT22;14000;52.056;8.510;2023-07-29T04:19:00;19.30;99.90
26278;DHT22;14000;52.056;8.510;2023-07-29T04:21:25;19.30;99.90
26278;DHT22;14000;52.056;8.510;2023-07-29T04:23:51;19.30;99.90
26278;DHT22;14000;52.056;8.510;2023-07-29T04:26:17;19.30;99.90
26278;DHT22;14000;52.056;8.510;2023-07-29T04:28:42;19.30;99.90
26278;DHT22;14000;52.056;8.510;2023-07-29T04:31:08;19.40;99.90
26278;DHT22;14000;52.056;8.510;2023-07-29T04:33:34;19.40;99.90
26278;DHT22;14000;52.056;8.510;2023-07-29T04:35:59;19.40;99.90
26278;DHT22;14000;52.056;8.510;2023-07-29T04:38:31;19.50;99.90
26278;DHT22;14000;52.056;8.510;2023-07-29T04:41:00;19.50;99.90
26278;DHT22;14000;52.056;8.510;2023-07-29T04:43:31;19.60;99.90
26278;DHT22;14000;52.056;8.510;2023-07-29T04:45:57;19.70;99.90
26278;DHT22;14000;52.056;8.510;2023-07-29T04:48:23;19.60;99.90
26278;DHT22;14000;52.056;8.510;2023-07-29T04:50:49;19.60;99.90
26278;DHT22;14000;52.056;8.510;2023-07-29T04:53:14;19.70;99.90
26278;DHT22;14000;52.056;8.510;2023-07-29T04:55:43;19.70;99.90
26278;DHT22;14000;52.056;8.510;2023-07-29T04:58:09;19.70;99.90
26278;DHT22;14000;52.056;8.510;2023-07-29T05:00:34;19.70;99.90
26278;DHT22;14000;52.056;8.510;2023-07-29T05:03:00;19.70;99.90
26278;DHT22;14000;52.056;8.510;2023-07-29T05:05:26;19.80;99.90
26278;DHT22;14000;52.056;8.510;2023-07-29T05:07:52;19.70;99.90
26278;DHT22;14000;52.056;8.510;2023-07-29T05:10:18;19.70;99.90
26278;DHT22;14000;52.056;8.510;2023-07-29T05:12:43;19.80;99.90
26278;DHT22;14000;52.056;8.510;2023-07-29T05:15:09;19.80;99.90
26278;DHT22;14000;52.056;8.510;2023-07-29T05:17:35;19.80;99.90
26278;DHT22;14000;52.056;8.510;2023-07-29T05:20:00;19.80;99.90
26278;DHT22;14000;52.056;8.510;2023-07-29T05:22:26;19.80;99.90
26278;DHT22;14000;52.056;8.510;2023-07-29T05:24:52;19.90;99.90
26278;DHT22;14000;52.056;8.510;2023-07-29T05:27:17;19.90;99.90
26278;DHT22;14000;52.056;8.510;2023-07-29T05:29:43;19.90;99.90
26278;DHT22;14000;52.056;8.510;2023-07-29T05:32:08;19.90;99.90
26278;DHT22;14000;52.056;8.510;2023-07-29T05:34:34;19.90;99.90
26278;DHT22;14000;52.056;8.510;2023-07-29T05:36:59;19.80;99.90
26278;DHT22;14000;52.056;8.510;2023-07-29T05:39:25;19.90;99.90
26278;DHT22;14000;52.056;8.510;2023-07-29T05:41:50;19.90;99.90
26278;DHT22;14000;52.056;8.510;2023-07-29T05:44:16;19.90;99.90
26278;DHT22;14000;52.056;8.510;2023-07-29T05:46:41;19.90;99.90
26278;DHT22;14000;52.056;8.510;2023-07-29T05:49:07;20.00;99.90
26278;DHT22;14000;52.056;8.510;2023-07-29T05:51:33;20.00;99.90
26278;DHT22;14000;52.056;8.510;2023-07-29T05:53:58;20.00;99.90
26278;DHT22;14000;52.056;8.510;2023-07-29T05:56:24;20.10;99.90
26278;DHT22;14000;52.056;8.510;2023-07-29T05:58:50;20.00;99.90
26278;DHT22;14000;52.056;8.510;2023-07-29T06:01:15;20.00;99.90
26278;DHT22;14000;52.056;8.510;2023-07-29T06:03:41;20.00;99.90
26278;DHT22;14000;52.056;8.510;2023-07-29T06:06:07;20.00;99.90
26278;DHT22;14000;52.056;8.510;2023-07-29T06:08:33;20.00;99.90
26278;DHT22;14000;52.056;8.510;2023-07-29T06:11:00;20.10;99.90
26278;DHT22;14000;52.056;8.510;2023-07-29T06:13:25;20.10;99.90
26278;DHT22;14000;52.056;8.510;2023-07-29T06:15:51;20.10;99.90
26278;DHT22;14000;52.056;8.510;2023-07-29T06:18:17;20.10;99.90
26278;DHT22;14000;52.056;8.510;2023-07-29T06:20:42;20.20;99.90
26278;DHT22;14000;52.056;8.510;2023-07-29T06:23:08;20.20;99.90
26278;DHT22;14000;52.056;8.510;2023-07-29T06:25:34;20.20;99.90
26278;DHT22;14000;52.056;8.510;2023-07-29T06:27:59;20.20;99.90
26278;DHT22;14000;52.056;8.510;2023-07-29T06:30:25;20.20;99.90
26278;DHT22;14000;52.056;8.510;2023-07-29T06:32:51;20.20;99.90
26278;DHT22;14000;52.056;8.510;2023-07-29T06:35:16;20.20;99.90
26278;DHT22;14000;52.056;8.510;2023-07-29T06:37:42;20.20;99.90
26278;DHT22;14000;52.056;8.510;2023-07-29T06:40:08;20.30;99.90
26278;DHT22;14000;52.056;8.510;2023-07-29T06:42:34;20.30;99.90
26278;DHT22;14000;52.056;8.510;2023-07-29T06:44:59;20.30;99.90
26278;DHT22;14000;52.056;8.510;2023-07-29T06:47:25;20.30;99.90
26278;DHT22;14000;52.056;8.510;2023-07-29T06:49:50;20.40;99.90
26278;DHT22;14000;52.056;8.510;2023-07-29T06:52:16;20.50;99.90
26278;DHT22;14000;52.056;8.510;2023-07-29T06:54:41;20.60;99.90
26278;DHT22;14000;52.056;8.510;2023-07-29T06:57:07;20.60;99.90
26278;DHT22;14000;52.056;8.510;2023-07-29T06:59:33;20.60;99.90
26278;DHT22;14000;52.056;8.510;2023-07-29T07:01:59;20.60;99.90
26278;DHT22;14000;52.056;8.510;2023-07-29T07:04:25;20.60;99.90
26278;DHT22;14000;52.056;8.510;2023-07-29T07:06:51;20.60;99.90
26278;DHT22;14000;52.056;8.510;2023-07-29T07:09:16;20.60;99.90
26278;DHT22;14000;52.056;8.510;2023-07-29T07:11:42;20.50;99.90
26278;DHT22;14000;52.056;8.510;2023-07-29T07:14:08;20.50;99.90
26278;DHT22;14000;52.056;8.510;2023-07-29T07:16:33;20.40;99.90
26278;DHT22;14000;52.056;8.510;2023-07-29T07:19:00;20.40;99.90
26278;DHT22;14000;52.056;8.510;2023-07-29T07:21:26;20.40;99.90
26278;DHT22;14000;52.056;8.510;2023-07-29T07:23:52;20.30;99.90
26278;DHT22;14000;52.056;8.510;2023-07-29T07:26:17;20.30;99.90
26278;DHT22;14000;52.056;8.510;2023-07-29T07:28:43;20.30;99.90
26278;DHT22;14000;52.056;8.510;2023-07-29T07:31:08;20.10;99.90
26278;DHT22;14000;52.056;8.510;2023-07-29T07:33:34;20.10;99.90
26278;DHT22;14000;52.056;8.510;2023-07-29T07:36:00;20.10;99.90
26278;DHT22;14000;52.056;8.510;2023-07-29T07:38:25;20.10;99.90
26278;DHT22;14000;52.056;8.510;2023-07-29T07:40:55;20.10;99.90
26278;DHT22;14000;52.056;8.510;2023-07-29T07:43:21;20.20;99.90
26278;DHT22;14000;52.056;8.510;2023-07-29T07:45:46;20.30;99.90
26278;DHT22;14000;52.056;8.510;2023-07-29T07:48:12;20.30;99.90
26278;DHT22;14000;52.056;8.510;2023-07-29T07:50:39;20.40;99.90
26278;DHT22;14000;52.056;8.510;2023-07-29T07:53:04;20.60;99.90
26278;DHT22;14000;52.056;8.510;2023-07-29T07:55:30;20.60;99.90
26278;DHT22;14000;52.056;8.510;2023-07-29T07:57:55;20.80;99.90
26278;DHT22;14000;52.056;8.510;2023-07-29T08:00:21;20.90;99.90
26278;DHT22;14000;52.056;8.510;2023-07-29T08:02:47;21.10;99.90
26278;DHT22;14000;52.056;8.510;2023-07-29T08:05:12;21.20;99.90
26278;DHT22;14000;52.056;8.510;2023-07-29T08:07:38;21.10;99.90
26278;DHT22;14000;52.056;8.510;2023-07-29T08:10:04;21.20;99.90
26278;DHT22;14000;52.056;8.510;2023-07-29T08:12:29;21.10;99.90
26278;DHT22;14000;52.056;8.510;2023-07-29T08:14:55;21.20;99.90
26278;DHT22;14000;52.056;8.510;2023-07-29T08:17:21;21.00;99.90
26278;DHT22;14000;52.056;8.510;2023-07-29T08:19:46;21.00;99.90
26278;DHT22;14000;52.056;8.510;2023-07-29T08:22:12;20.80;99.90
26278;DHT22;14000;52.056;8.510;2023-07-29T08:24:37;20.80;99.90
26278;DHT22;14000;52.056;8.510;2023-07-29T08:27:03;20.80;99.90
26278;DHT22;14000;52.056;8.510;2023-07-29T08:29:29;20.70;99.90
26278;DHT22;14000;52.056;8.510;2023-07-29T08:31:54;20.70;99.90
26278;DHT22;14000;52.056;8.510;2023-07-29T08:34:20;20.60;99.90
26278;DHT22;14000;52.056;8.510;2023-07-29T08:36:46;20.60;99.90
26278;DHT22;14000;52.056;8.510;2023-07-29T08:39:12;20.50;99.90
26278;DHT22;14000;52.056;8.510;2023-07-29T08:41:51;20.50;99.90
26278;DHT22;14000;52.056;8.510;2023-07-29T08:44:22;20.60;99.90
26278;DHT22;14000;52.056;8.510;2023-07-29T08:46:49;20.70;99.90
26278;DHT22;14000;52.056;8.510;2023-07-29T08:49:16;20.70;99.90
26278;DHT22;14000;52.056;8.510;2023-07-29T08:51:48;20.80;99.90
26278;DHT22;14000;52.056;8.510;2023-07-29T08:54:15;20.80;99.90
26278;DHT22;14000;52.056;8.510;2023-07-29T08:56:41;20.90;99.90
26278;DHT22;14000;52.056;8.510;2023-07-29T08:59:08;20.90;99.90
26278;DHT22;14000;52.056;8.510;2023-07-29T09:01:34;21.00;99.90
26278;DHT22;14000;52.056;8.510;2023-07-29T09:04:00;21.20;99.90
26278;DHT22;14000;52.056;8.510;2023-07-29T09:06:26;21.20;99.90
26278;DHT22;14000;52.056;8.510;2023-07-29T09:08:54;21.20;99.90
26278;DHT22;14000;52.056;8.510;2023-07-29T09:11:21;21.10;99.90
26278;DHT22;14000;52.056;8.510;2023-07-29T09:13:47;21.10;99.90
26278;DHT22;14000;52.056;8.510;2023-07-29T09:16:13;21.10;99.90
26278;DHT22;14000;52.056;8.510;2023-07-29T09:18:39;21.10;99.90
26278;DHT22;14000;52.056;8.510;2023-07-29T09:21:05;21.00;99.90
26278;DHT22;14000;52.056;8.510;2023-07-29T09:23:44;21.00;99.90
26278;DHT22;14000;52.056;8.510;2023-07-29T09:26:10;21.00;99.90
26278;DHT22;14000;52.056;8.510;2023-07-29T09:28:39;20.90;99.90
26278;DHT22;14000;52.056;8.510;2023-07-29T09:31:05;21.00;99.90
26278;DHT22;14000;52.056;8.510;2023-07-29T09:33:35;21.10;99.90
26278;DHT22;14000;52.056;8.510;2023-07-29T09:36:07;21.20;99.90
26278;DHT22;14000;52.056;8.510;2023-07-29T09:38:34;21.10;99.90
26278;DHT22;14000;52.056;8.510;2023-07-29T09:41:01;21.10;99.90
26278;DHT22;14000;52.056;8.510;2023-07-29T09:43:31;21.20;99.90
26278;DHT22;14000;52.056;8.510;2023-07-29T09:46:04;21.40;99.90
26278;DHT22;14000;52.056;8.510;2023-07-29T09:48:36;21.60;99.90
26278;DHT22;14000;52.056;8.510;2023-07-29T09:51:12;21.50;99.90
26278;DHT22;14000;52.056;8.510;2023-07-29T09:53:46;21.50;99.90
26278;DHT22;14000;52.056;8.510;2023-07-29T09:56:12;21.50;99.90
26278;DHT22;14000;52.056;8.510;2023-07-29T09:58:39;21.50;99.90
26278;DHT22;14000;52.056;8.510;2023-07-29T10:01:06;21.50;99.90
26278;DHT22;14000;52.056;8.510;2023-07-29T10:03:31;21.50;99.90
26278;DHT22;14000;52.056;8.510;2023-07-29T10:06:01;21.70;99.90
26278;DHT22;14000;52.056;8.510;2023-07-29T10:08:29;21.90;99.90
26278;DHT22;14000;52.056;8.510;2023-07-29T10:10:56;22.00;99.90
26278;DHT22;14000;52.056;8.510;2023-07-29T10:13:24;22.20;99.90
26278;DHT22;14000;52.056;8.510;2023-07-29T10:15:51;22.40;99.90
26278;DHT22;14000;52.056;8.510;2023-07-29T10:18:18;22.40;99.90
26278;DHT22;14000;52.056;8.510;2023-07-29T10:20:45;22.40;99.90
26278;DHT22;14000;52.056;8.510;2023-07-29T10:23:12;22.40;99.90
26278;DHT22;14000;52.056;8.510;2023-07-29T10:25:44;22.40;99.90
26278;DHT22;14000;52.056;8.510;2023-07-29T10:28:12;22.40;99.90
26278;DHT22;14000;52.056;8.510;2023-07-29T10:30:41;22.50;99.90
26278;DHT22;14000;52.056;8.510;2023-07-29T10:33:07;22.50;99.90
26278;DHT22;14000;52.056;8.510;2023-07-29T10:35:33;22.60;99.90
26278;DHT22;14000;52.056;8.510;2023-07-29T10:38:00;22.50;99.90
26278;DHT22;14000;52.056;8.510;2023-07-29T10:40:26;22.60;99.90
26278;DHT22;14000;52.056;8.510;2023-07-29T10:43:12;22.70;99.90
26278;DHT22;14000;52.056;8.510;2023-07-29T10:45:39;22.80;99.90
26278;DHT22;14000;52.056;8.510;2023-07-29T10:48:09;22.80;99.90
26278;DHT22;14000;52.056;8.510;2023-07-29T10:50:38;22.90;99.90
26278;DHT22;14000;52.056;8.510;2023-07-29T10:53:05;22.90;99.90
26278;DHT22;14000;52.056;8.510;2023-07-29T10:55:34;22.90;99.90
26278;DHT22;14000;52.056;8.510;2023-07-29T10:58:15;22.80;99.90
26278;DHT22;14000;52.056;8.510;2023-07-29T11:00:45;22.60;99.90
26278;DHT22;14000;52.056;8.510;2023-07-29T11:03:13;22.60;99.90
26278;DHT22;14000;52.056;8.510;2023-07-29T11:05:52;22.70;99.90
26278;DHT22;14000;52.056;8.510;2023-07-29T11:08:20;22.80;99.90
26278;DHT22;14000;52.056;8.510;2023-07-29T11:11:18;23.20;99.90
26278;DHT22;14000;52.056;8.510;2023-07-29T11:13:44;23.40;99.90
26278;DHT22;14000;52.056;8.510;2023-07-29T11:16:10;23.20;99.90
26278;DHT22;14000;52.056;8.510;2023-07-29T11:18:36;23.00;99.90
26278;DHT22;14000;52.056;8.510;2023-07-29T11:21:03;22.90;99.90
26278;DHT22;14000;52.056;8.510;2023-07-29T11:23:33;23.80;99.90
26278;DHT22;14000;52.056;8.510;2023-07-29T11:26:00;24.30;99.90
26278;DHT22;14000;52.056;8.510;2023-07-29T11:28:27;24.40;99.90
26278;DHT22;14000;52.056;8.510;2023-07-29T11:30:54;24.80;99.90
26278;DHT22;14000;52.056;8.510;2023-07-29T11:33:22;24.90;99.90
26278;DHT22;14000;52.056;8.510;2023-07-29T11:35:49;24.30;99.90
26278;DHT22;14000;52.056;8.510;2023-07-29T11:38:16;24.30;99.90
26278;DHT22;14000;52.056;8.510;2023-07-29T11:40:42;25.30;99.90
26278;DHT22;14000;52.056;8.510;2023-07-29T11:43:07;26.60;99.90
26278;DHT22;14000;52.056;8.510;2023-07-29T11:45:33;27.30;99.90
26278;DHT22;14000;52.056;8.510;2023-07-29T11:48:01;27.70;99.90
26278;DHT22;14000;52.056;8.510;2023-07-29T11:50:26;27.50;99.90
26278;DHT22;14000;52.056;8.510;2023-07-29T11:52:52;27.00;99.90
26278;DHT22;14000;52.056;8.510;2023-07-29T11:55:18;26.80;99.90
26278;DHT22;14000;52.056;8.510;2023-07-29T11:57:50;27.20;99.90
26278;DHT22;14000;52.056;8.510;2023-07-29T12:00:16;26.70;99.90
26278;DHT22;14000;52.056;8.510;2023-07-29T12:02:44;26.10;99.90
26278;DHT22;14000;52.056;8.510;2023-07-29T12:05:12;25.70;99.90
26278;DHT22;14000;52.056;8.510;2023-07-29T12:07:39;25.50;99.90
26278;DHT22;14000;52.056;8.510;2023-07-29T12:10:05;25.00;99.90
26278;DHT22;14000;52.056;8.510;2023-07-29T12:12:31;24.80;99.90
26278;DHT22;14000;52.056;8.510;2023-07-29T12:14:57;24.80;99.90
26278;DHT22;14000;52.056;8.510;2023-07-29T12:17:23;25.00;99.90
26278;DHT22;14000;52.056;8.510;2023-07-29T12:19:48;24.90;99.90
26278;DHT22;14000;52.056;8.510;2023-07-29T12:22:18;25.20;99.90
26278;DHT22;14000;52.056;8.510;2023-07-29T12:24:44;25.80;99.90
26278;DHT22;14000;52.056;8.510;2023-07-29T12:27:14;25.80;99.90
26278;DHT22;14000;52.056;8.510;2023-07-29T12:29:41;25.60;99.90
26278;DHT22;14000;52.056;8.510;2023-07-29T12:32:08;25.50;99.90
26278;DHT22;14000;52.056;8.510;2023-07-29T12:34:35;25.30;99.90
26278;DHT22;14000;52.056;8.510;2023-07-29T12:37:03;25.30;99.90
26278;DHT22;14000;52.056;8.510;2023-07-29T12:39:31;25.20;99.90
26278;DHT22;14000;52.056;8.510;2023-07-29T12:41:58;25.10;99.90
26278;DHT22;14000;52.056;8.510;2023-07-29T12:44:26;24.70;99.90
26278;DHT22;14000;52.056;8.510;2023-07-29T12:46:52;24.60;99.90
26278;DHT22;14000;52.056;8.510;2023-07-29T12:49:18;24.50;99.90
26278;DHT22;14000;52.056;8.510;2023-07-29T12:51:44;24.40;99.90
26278;DHT22;14000;52.056;8.510;2023-07-29T12:54:09;24.40;99.90
26278;DHT22;14000;52.056;8.510;2023-07-29T12:56:35;24.70;99.90
26278;DHT22;14000;52.056;8.510;2023-07-29T12:59:01;25.00;99.90
26278;DHT22;14000;52.056;8.510;2023-07-29T13:01:28;25.50;99.90
26278;DHT22;14000;52.056;8.510;2023-07-29T13:03:54;25.50;99.90
26278;DHT22;14000;52.056;8.510;2023-07-29T13:06:20;25.60;99.90
26278;DHT22;14000;52.056;8.510;2023-07-29T13:08:46;25.70;99.90
26278;DHT22;14000;52.056;8.510;2023-07-29T13:11:12;26.00;99.90
26278;DHT22;14000;52.056;8.510;2023-07-29T13:13:38;26.10;99.90
26278;DHT22;14000;52.056;8.510;2023-07-29T13:16:04;26.30;99.90
26278;DHT22;14000;52.056;8.510;2023-07-29T13:18:29;26.20;99.90
26278;DHT22;14000;52.056;8.510;2023-07-29T13:20:55;26.00;99.90
26278;DHT22;14000;52.056;8.510;2023-07-29T13:23:21;25.90;99.90
26278;DHT22;14000;52.056;8.510;2023-07-29T13:25:47;25.50;99.90
26278;DHT22;14000;52.056;8.510;2023-07-29T13:28:13;25.20;99.90
26278;DHT22;14000;52.056;8.510;2023-07-29T13:30:39;25.30;99.90
26278;DHT22;14000;52.056;8.510;2023-07-29T13:33:06;25.10;99.90
26278;DHT22;14000;52.056;8.510;2023-07-29T13:35:32;24.90;99.90
26278;DHT22;14000;52.056;8.510;2023-07-29T13:37:57;24.80;99.90
26278;DHT22;14000;52.056;8.510;2023-07-29T13:40:23;24.60;99.90
26278;DHT22;14000;52.056;8.510;2023-07-29T13:42:49;24.40;99.90
26278;DHT22;14000;52.056;8.510;2023-07-29T13:45:14;24.50;99.90
26278;DHT22;14000;52.056;8.510;2023-07-29T13:47:40;24.70;99.90
26278;DHT22;14000;52.056;8.510;2023-07-29T13:50:08;24.90;99.90
26278;DHT22;14000;52.056;8.510;2023-07-29T13:52:35;24.80;99.90
26278;DHT22;14000;52.056;8.510;2023-07-29T13:55:01;24.70;99.90
26278;DHT22;14000;52.056;8.510;2023-07-29T13:57:26;24.60;99.90
26278;DHT22;14000;52.056;8.510;2023-07-29T13:59:52;24.80;99.90
26278;DHT22;14000;52.056;8.510;2023-07-29T14:02:18;25.00;99.90
26278;DHT22;14000;52.056;8.510;2023-07-29T14:04:44;25.30;99.90
26278;DHT22;14000;52.056;8.510;2023-07-29T14:07:09;25.60;99.90
26278;DHT22;14000;52.056;8.510;2023-07-29T14:09:35;25.90;99.90
26278;DHT22;14000;52.056;8.510;2023-07-29T14:12:00;25.90;99.90
26278;DHT22;14000;52.056;8.510;2023-07-29T14:14:26;25.90;99.90
26278;DHT22;14000;52.056;8.510;2023-07-29T14:16:51;25.90;99.90
26278;DHT22;14000;52.056;8.510;2023-07-29T14:19:18;25.80;99.90
26278;DHT22;14000;52.056;8.510;2023-07-29T14:21:43;25.80;99.90
26278;DHT22;14000;52.056;8.510;2023-07-29T14:24:09;25.70;99.90
26278;DHT22;14000;52.056;8.510;2023-07-29T14:26:34;25.80;99.90
26278;DHT22;14000;52.056;8.510;2023-07-29T14:29:00;25.90;99.90
26278;DHT22;14000;52.056;8.510;2023-07-29T14:31:25;26.10;99.90
26278;DHT22;14000;52.056;8.510;2023-07-29T14:33:51;26.20;99.90
26278;DHT22;14000;52.056;8.510;2023-07-29T14:36:16;26.10;99.90
26278;DHT22;14000;52.056;8.510;2023-07-29T14:38:42;26.00;99.90
26278;DHT22;14000;52.056;8.510;2023-07-29T14:41:08;25.70;99.90
26278;DHT22;14000;52.056;8.510;2023-07-29T14:43:34;25.30;99.90
26278;DHT22;14000;52.056;8.510;2023-07-29T14:46:00;24.90;99.90
26278;DHT22;14000;52.056;8.510;2023-07-29T14:48:26;24.60;99.90
26278;DHT22;14000;52.056;8.510;2023-07-29T14:50:51;24.30;99.90
26278;DHT22;14000;52.056;8.510;2023-07-29T14:53:17;24.10;99.90
26278;DHT22;14000;52.056;8.510;2023-07-29T14:55:43;23.90;99.90
26278;DHT22;14000;52.056;8.510;2023-07-29T14:58:09;23.70;99.90
26278;DHT22;14000;52.056;8.510;2023-07-29T15:00:34;23.20;99.90
26278;DHT22;14000;52.056;8.510;2023-07-29T15:03:00;22.30;99.90
26278;DHT22;14000;52.056;8.510;2023-07-29T15:05:26;21.10;99.90
26278;DHT22;14000;52.056;8.510;2023-07-29T15:07:51;20.00;99.90
26278;DHT22;14000;52.056;8.510;2023-07-29T15:10:17;19.10;99.90
26278;DHT22;14000;52.056;8.510;2023-07-29T15:12:44;18.60;99.90
26278;DHT22;14000;52.056;8.510;2023-07-29T15:15:11;18.20;99.90
26278;DHT22;14000;52.056;8.510;2023-07-29T15:17:37;17.80;99.90
26278;DHT22;14000;52.056;8.510;2023-07-29T15:20:03;17.50;99.90
26278;DHT22;14000;52.056;8.510;2023-07-29T15:22:29;17.40;99.90
26278;DHT22;14000;52.056;8.510;2023-07-29T15:24:57;17.40;99.90
26278;DHT22;14000;52.056;8.510;2023-07-29T15:27:23;17.50;99.90
26278;DHT22;14000;52.056;8.510;2023-07-29T15:29:48;17.60;99.90
26278;DHT22;14000;52.056;8.510;2023-07-29T15:32:14;17.80;99.90
26278;DHT22;14000;52.056;8.510;2023-07-29T15:34:40;17.80;99.90